sensor_id;sensor_type;location;lat;lon;timestamp;temperature;humidity
46608;DHT22;32330;51.936;7.184;2023-04-07T03:48:58;7.70;99.90
46608;DHT22;32330;51.936;7.184;2023-04-07T03:51:25;7.70;99.90
46608;DHT22;32330;51.936;7.184;2023-04-07T03:53:55;7.70;99.90
46608;DHT22;32330;51.936;7.184;2023-04-07T03:56:29;7.70;99.90
46608;DHT22;32330;51.936;7.184;2023-04-07T03:58:57;7.70;99.90
46608;DHT22;32330;51.936;7.184;2023-04-07T04:01:28;7.70;99.90
46608;DHT22;32330;51.936;7.184;2023-04-07T04:04:01;7.70;99.90
46608;DHT22;32330;51.936;7.184;2023-04-07T04:06:29;7.70;99.90
46608;DHT22;32330;51.936;7.184;2023-04-07T04:09:04;7.70;99.90
46608;DHT22;32330;51.936;7.184;2023-04-07T04:11:35;7.70;99.90
46608;DHT22;32330;51.936;7.184;2023-04-07T04:14:03;7.80;99.90
46608;DHT22;32330;51.936;7.184;2023-04-07T04:16:33;7.70;99.90
46608;DHT22;32330;51.936;7.184;2023-04-07T04:19:06;7.70;99.90
46608;DHT22;32330;51.936;7.184;2023-04-07T04:21:34;7.70;99.90
46608;DHT22;32330;51.936;7.184;2023-04-07T04:24:01;7.70;99.90
46608;DHT22;32330;51.936;7.184;2023-04-07T04:26:29;7.70;99.90
46608;DHT22;32330;51.936;7.184;2023-04-07T04:29:02;7.80;99.90
46608;DHT22;32330;51.936;7.184;2023-04-07T04:31:29;7.80;99.90
46608;DHT22;32330;51.936;7.184;2023-04-07T04:33:57;7.70;99.90
46608;DHT22;32330;51.936;7.184;2023-04-07T04:36:25;7.80;99.90
46608;DHT22;32330;51.936;7.184;2023-04-07T04:38:57;7.80;99.90
46608;DHT22;32330;51.936;7.184;2023-04-07T04:41:24;7.80;99.90
46608;DHT22;32330;51.936;7.184;2023-04-07T04:43:51;7.70;99.90
46608;DHT22;32330;51.936;7.184;2023-04-07T04:46:22;7.80;99.90
46608;DHT22;32330;51.936;7.184;2023-04-07T04:48:49;7.70;99.90
46608;DHT22;32330;51.936;7.184;2023-04-07T04:51:18;7.80;99.90
46608;DHT22;32330;51.936;7.184;2023-04-07T04:53:52;7.70;99.90
46608;DHT22;32330;51.936;7.184;2023-04-07T04:56:21;7.80;99.90
46608;DHT22;32330;51.936;7.184;2023-04-07T04:58:49;7.80;99.90
46608;DHT22;32330;51.936;7.184;2023-04-07T05:01:24;7.80;99.90
46608;DHT22;32330;51.936;7.184;2023-04-07T05:03:59;7.80;99.90
46608;DHT22;32330;51.936;7.184;2023-04-07T05:06:28;7.80;99.90
46608;DHT22;32330;51.936;7.184;2023-04-07T05:09:01;7.80;99.90
46608;DHT22;32330;51.936;7.184;2023-04-07T05:11:38;7.80;99.90
46608;DHT22;32330;51.936;7.184;2023-04-07T05:14:06;7.80;99.90
46608;DHT22;32330;51.936;7.184;2023-04-07T05:16:33;7.70;99.90
46608;DHT22;32330;51.936;7.184;2023-04-07T05:19:00;7.80;99.90
46608;DHT22;32330;51.936;7.184;2023-04-07T05:21:27;7.80;99.90
46608;DHT22;32330;51.936;7.184;2023-04-07T05:24:00;7.80;99.90
46608;DHT22;32330;51.936;7.184;2023-04-07T05:26:28;7.80;99.90
46608;DHT22;32330;51.936;7.184;2023-04-07T05:28:55;7.80;99.90
46608;DHT22;32330;51.936;7.184;2023-04-07T05:31:24;7.80;99.90
46608;DHT22;32330;51.936;7.184;2023-04-07T05:33:54;7.80;99.90
46608;DHT22;32330;51.936;7.184;2023-04-07T05:36:24;7.80;99.90
46608;DHT22;32330;51.936;7.184;2023-04-07T05:38:55;7.70;99.90
46608;DHT22;32330;51.936;7.184;2023-04-07T05:41:23;7.80;99.90
46608;DHT22;32330;51.936;7.184;2023-04-07T05:43:50;7.80;99.90
46608;DHT22;32330;51.936;7.184;2023-04-07T05:46:17;7.80;99.90
46608;DHT22;32330;51.936;7.184;2023-04-07T05:48:50;7.80;99.90
46608;DHT22;32330;51.936;7.184;2023-04-07T05:51:18;7.80;99.90
46608;DHT22;32330;51.936;7.184;2023-04-07T05:53:45;7.80;99.90
46608;DHT22;32330;51.936;7.184;2023-04-07T05:56:14;7.90;99.90
46608;DHT22;32330;51.936;7.184;2023-04-07T05:58:47;7.80;99.90
46608;DHT22;32330;51.936;7.184;2023-04-07T06:01:15;7.80;99.90
46608;DHT22;32330;51.936;7.184;2023-04-07T06:03:42;7.80;99.90
46608;DHT22;32330;51.936;7.184;2023-04-07T06:06:17;7.90;99.90
46608;DHT22;32330;51.936;7.184;2023-04-07T06:08:44;7.90;99.90
46608;DHT22;32330;51.936;7.184;2023-04-07T06:11:12;7.90;99.90
46608;DHT22;32330;51.936;7.184;2023-04-07T06:13:39;7.90;99.90
46608;DHT22;32330;51.936;7.184;2023-04-07T06:16:07;8.00;99.90
46608;DHT22;32330;51.936;7.184;2023-04-07T06:18:36;8.00;99.90
46608;DHT22;32330;51.936;7.184;2023-04-07T06:21:05;8.00;99.90
46608;DHT22;32330;51.936;7.184;2023-04-07T06:23:32;8.00;99.90
46608;DHT22;32330;51.936;7.184;2023-04-07T06:25:59;8.00;99.90
46608;DHT22;32330;51.936;7.184;2023-04-07T06:28:28;8.00;99.90
46608;DHT22;32330;51.936;7.184;2023-04-07T06:30:58;8.00;99.90
46608;DHT22;32330;51.936;7.184;2023-04-07T06:33:26;8.10;99.90
46608;DHT22;32330;51.936;7.184;2023-04-07T06:35:53;8.00;99.90
46608;DHT22;32330;51.936;7.184;2023-04-07T06:38:21;8.10;99.90
46608;DHT22;32330;51.936;7.184;2023-04-07T06:40:48;8.10;99.90
46608;DHT22;32330;51.936;7.184;2023-04-07T06:43:15;8.10;99.90
46608;DHT22;32330;51.936;7.184;2023-04-07T06:45:49;8.10;99.90
46608;DHT22;32330;51.936;7.184;2023-04-07T06:48:16;8.20;99.90
46608;DHT22;32330;51.936;7.184;2023-04-07T06:50:47;8.20;99.90
46608;DHT22;32330;51.936;7.184;2023-04-07T06:53:15;8.30;99.90
46608;DHT22;32330;51.936;7.184;2023-04-07T06:55:43;8.30;99.90
46608;DHT22;32330;51.936;7.184;2023-04-07T06:58:10;8.30;99.90
46608;DHT22;32330;51.936;7.184;2023-04-07T07:00:38;8.30;99.90
46608;DHT22;32330;51.936;7.184;2023-04-07T07:03:05;8.40;99.90
46608;DHT22;32330;51.936;7.184;2023-04-07T07:05:32;8.40;99.90
46608;DHT22;32330;51.936;7.184;2023-04-07T07:08:00;8.40;99.90
46608;DHT22;32330;51.936;7.184;2023-04-07T07:10:27;8.50;99.90
46608;DHT22;32330;51.936;7.184;2023-04-07T07:12:54;8.50;99.90
46608;DHT22;32330;51.936;7.184;2023-04-07T07:15:21;8.50;99.90
46608;DHT22;32330;51.936;7.184;2023-04-07T07:17:48;8.50;99.90
46608;DHT22;32330;51.936;7.184;2023-04-07T07:20:15;8.50;99.90
46608;DHT22;32330;51.936;7.184;2023-04-07T07:22:42;8.60;99.90
46608;DHT22;32330;51.936;7.184;2023-04-07T07:25:11;8.60;99.90
46608;DHT22;32330;51.936;7.184;2023-04-07T07:27:38;8.60;99.90
46608;DHT22;32330;51.936;7.184;2023-04-07T07:30:06;8.60;99.90
46608;DHT22;32330;51.936;7.184;2023-04-07T07:32:33;8.70;99.90
46608;DHT22;32330;51.936;7.184;2023-04-07T07:35:00;8.70;99.90
46608;DHT22;32330;51.936;7.184;2023-04-07T07:37:27;8.70;99.90
46608;DHT22;32330;51.936;7.184;2023-04-07T07:39:53;8.70;99.90
46608;DHT22;32330;51.936;7.184;2023-04-07T07:42:22;8.70;99.90
46608;DHT22;32330;51.936;7.184;2023-04-07T07:44:49;8.80;99.90
46608;DHT22;32330;51.936;7.184;2023-04-07T07:47:16;8.80;99.90
46608;DHT22;32330;51.936;7.184;2023-04-07T07:49:43;8.90;99.90
46608;DHT22;32330;51.936;7.184;2023-04-07T07:52:10;9.00;99.90
46608;DHT22;32330;51.936;7.184;2023-04-07T07:54:37;9.00;99.90
46608;DHT22;32330;51.936;7.184;2023-04-07T07:57:04;9.10;99.90
46608;DHT22;32330;51.936;7.184;2023-04-07T07:59:32;9.10;99.90
46608;DHT22;32330;51.936;7.184;2023-04-07T08:01:59;9.10;99.90
46608;DHT22;32330;51.936;7.184;2023-04-07T08:04:26;9.10;99.90
46608;DHT22;32330;51.936;7.184;2023-04-07T08:06:53;9.20;99.90
46608;DHT22;32330;51.936;7.184;2023-04-07T08:09:20;9.30;99.90
46608;DHT22;32330;51.936;7.184;2023-04-07T08:11:47;9.30;99.90
46608;DHT22;32330;51.936;7.184;2023-04-07T08:14:14;9.30;99.90
46608;DHT22;32330;51.936;7.184;2023-04-07T08:16:43;9.40;99.90
46608;DHT22;32330;51.936;7.184;2023-04-07T08:19:10;9.40;99.90
46608;DHT22;32330;51.936;7.184;2023-04-07T08:21:38;9.40;99.90
46608;DHT22;32330;51.936;7.184;2023-04-07T08:24:06;9.50;99.90
46608;DHT22;32330;51.936;7.184;2023-04-07T08:26:33;9.50;99.90
46608;DHT22;32330;51.936;7.184;2023-04-07T08:29:00;9.50;99.90
46608;DHT22;32330;51.936;7.184;2023-04-07T08:31:27;9.60;99.90
46608;DHT22;32330;51.936;7.184;2023-04-07T08:33:55;9.60;99.90
46608;DHT22;32330;51.936;7.184;2023-04-07T08:36:23;9.60;99.90
46608;DHT22;32330;51.936;7.184;2023-04-07T08:38:50;9.70;99.90
46608;DHT22;32330;51.936;7.184;2023-04-07T08:41:26;9.70;99.90
46608;DHT22;32330;51.936;7.184;2023-04-07T08:43:55;9.80;99.90
46608;DHT22;32330;51.936;7.184;2023-04-07T08:46:24;9.80;99.90
46608;DHT22;32330;51.936;7.184;2023-04-07T08:48:52;9.80;99.90
46608;DHT22;32330;51.936;7.184;2023-04-07T08:51:26;9.70;99.90
46608;DHT22;32330;51.936;7.184;2023-04-07T08:53:59;9.70;99.90
46608;DHT22;32330;51.936;7.184;2023-04-07T08:56:31;9.80;99.90
46608;DHT22;32330;51.936;7.184;2023-04-07T08:58:59;9.80;99.90
46608;DHT22;32330;51.936;7.184;2023-04-07T09:01:27;9.80;99.90
46608;DHT22;32330;51.936;7.184;2023-04-07T09:03:56;9.80;99.90
46608;DHT22;32330;51.936;7.184;2023-04-07T09:06:24;9.80;99.90
46608;DHT22;32330;51.936;7.184;2023-04-07T09:08:52;9.80;99.90
46608;DHT22;32330;51.936;7.184;2023-04-07T09:11:19;9.90;99.90
46608;DHT22;32330;51.936;7.184;2023-04-07T09:13:46;9.80;99.90
46608;DHT22;32330;51.936;7.184;2023-04-07T09:16:15;9.80;99.90
46608;DHT22;32330;51.936;7.184;2023-04-07T09:18:42;9.80;99.90
46608;DHT22;32330;51.936;7.184;2023-04-07T09:21:09;9.80;99.90
46608;DHT22;32330;51.936;7.184;2023-04-07T09:23:39;9.90;99.90
46608;DHT22;32330;51.936;7.184;2023-04-07T09:26:21;9.90;99.90
46608;DHT22;32330;51.936;7.184;2023-04-07T09:28:53;9.90;99.90
46608;DHT22;32330;51.936;7.184;2023-04-07T09:31:20;9.80;99.90
46608;DHT22;32330;51.936;7.184;2023-04-07T09:33:48;9.80;99.90
46608;DHT22;32330;51.936;7.184;2023-04-07T09:36:15;9.80;99.90
46608;DHT22;32330;51.936;7.184;2023-04-07T09:38:44;9.80;99.90
46608;DHT22;32330;51.936;7.184;2023-04-07T09:41:12;9.80;99.90
46608;DHT22;32330;51.936;7.184;2023-04-07T09:43:41;9.90;99.90
46608;DHT22;32330;51.936;7.184;2023-04-07T09:46:11;9.90;99.90
46608;DHT22;32330;51.936;7.184;2023-04-07T09:48:38;9.90;99.90
46608;DHT22;32330;51.936;7.184;2023-04-07T09:51:07;10.00;99.90
46608;DHT22;32330;51.936;7.184;2023-04-07T09:53:46;9.90;99.90
46608;DHT22;32330;51.936;7.184;2023-04-07T09:56:14;9.90;99.90
46608;DHT22;32330;51.936;7.184;2023-04-07T09:58:43;9.90;99.90
46608;DHT22;32330;51.936;7.184;2023-04-07T10:01:10;9.90;99.90
46608;DHT22;32330;51.936;7.184;2023-04-07T10:06:07;10.00;99.90
46608;DHT22;32330;51.936;7.184;2023-04-07T10:08:39;9.90;99.90
46608;DHT22;32330;51.936;7.184;2023-04-07T10:11:08;10.00;99.90
46608;DHT22;32330;51.936;7.184;2023-04-07T10:13:38;10.00;99.90
46608;DHT22;32330;51.936;7.184;2023-04-07T10:16:06;10.00;99.90
46608;DHT22;32330;51.936;7.184;2023-04-07T10:18:35;10.00;99.90
46608;DHT22;32330;51.936;7.184;2023-04-07T10:21:03;10.10;99.90
46608;DHT22;32330;51.936;7.184;2023-04-07T10:23:49;10.10;99.90
46608;DHT22;32330;51.936;7.184;2023-04-07T10:26:23;10.00;99.90
46608;DHT22;32330;51.936;7.184;2023-04-07T10:28:56;10.00;99.90
46608;DHT22;32330;51.936;7.184;2023-04-07T10:31:24;10.00;99.90
46608;DHT22;32330;51.936;7.184;2023-04-07T10:33:52;10.00;99.90
46608;DHT22;32330;51.936;7.184;2023-04-07T10:36:21;10.00;99.90
46608;DHT22;32330;51.936;7.184;2023-04-07T10:39:18;10.10;99.90
46608;DHT22;32330;51.936;7.184;2023-04-07T10:41:46;9.90;99.90
46608;DHT22;32330;51.936;7.184;2023-04-07T10:44:45;9.90;99.90
46608;DHT22;32330;51.936;7.184;2023-04-07T10:47:13;9.90;99.90
46608;DHT22;32330;51.936;7.184;2023-04-07T10:50:16;9.90;99.90
46608;DHT22;32330;51.936;7.184;2023-04-07T10:52:44;9.90;99.90
46608;DHT22;32330;51.936;7.184;2023-04-07T10:55:34;9.80;99.90
46608;DHT22;32330;51.936;7.184;2023-04-07T10:58:22;9.90;99.90
46608;DHT22;32330;51.936;7.184;2023-04-07T11:01:23;10.00;99.90
46608;DHT22;32330;51.936;7.184;2023-04-07T11:03:55;10.00;99.90
46608;DHT22;32330;51.936;7.184;2023-04-07T11:06:22;10.10;99.90
46608;DHT22;32330;51.936;7.184;2023-04-07T11:08:49;10.10;99.90
46608;DHT22;32330;51.936;7.184;2023-04-07T11:11:33;10.10;99.90
46608;DHT22;32330;51.936;7.184;2023-04-07T11:14:02;10.10;99.90
46608;DHT22;32330;51.936;7.184;2023-04-07T11:16:37;10.00;99.90
46608;DHT22;32330;51.936;7.184;2023-04-07T11:19:05;10.00;99.90
46608;DHT22;32330;51.936;7.184;2023-04-07T11:21:32;10.00;99.90
46608;DHT22;32330;51.936;7.184;2023-04-07T11:23:59;10.00;99.90
46608;DHT22;32330;51.936;7.184;2023-04-07T11:26:26;10.00;99.90
46608;DHT22;32330;51.936;7.184;2023-04-07T11:28:55;10.00;99.90
46608;DHT22;32330;51.936;7.184;2023-04-07T11:31:25;10.00;99.90
46608;DHT22;32330;51.936;7.184;2023-04-07T11:33:53;10.00;99.90
46608;DHT22;32330;51.936;7.184;2023-04-07T11:36:27;10.00;99.90
46608;DHT22;32330;51.936;7.184;2023-04-07T11:38:55;10.00;99.90
46608;DHT22;32330;51.936;7.184;2023-04-07T11:41:27;10.00;99.90
46608;DHT22;32330;51.936;7.184;2023-04-07T11:44:08;10.00;99.90
46608;DHT22;32330;51.936;7.184;2023-04-07T11:46:51;10.00;99.90
46608;DHT22;32330;51.936;7.184;2023-04-07T11:49:19;10.00;99.90
46608;DHT22;32330;51.936;7.184;2023-04-07T11:51:46;10.00;99.90
46608;DHT22;32330;51.936;7.184;2023-04-07T11:54:13;10.00;99.90
46608;DHT22;32330;51.936;7.184;2023-04-07T11:56:42;9.90;99.90
46608;DHT22;32330;51.936;7.184;2023-04-07T11:59:19;10.00;99.90
46608;DHT22;32330;51.936;7.184;2023-04-07T12:01:49;10.00;99.90
46608;DHT22;32330;51.936;7.184;2023-04-07T12:04:16;10.00;99.90
46608;DHT22;32330;51.936;7.184;2023-04-07T12:06:45;10.00;99.90
46608;DHT22;32330;51.936;7.184;2023-04-07T12:09:27;10.10;99.90
46608;DHT22;32330;51.936;7.184;2023-04-07T12:11:55;10.00;99.90
46608;DHT22;32330;51.936;7.184;2023-04-07T12:14:23;10.00;99.90
46608;DHT22;32330;51.936;7.184;2023-04-07T12:16:51;10.00;99.90
46608;DHT22;32330;51.936;7.184;2023-04-07T12:19:21;10.00;99.90
46608;DHT22;32330;51.936;7.184;2023-04-07T12:21:48;10.00;99.90
46608;DHT22;32330;51.936;7.184;2023-04-07T12:24:15;10.00;99.90
46608;DHT22;32330;51.936;7.184;2023-04-07T12:26:42;10.10;99.90
46608;DHT22;32330;51.936;7.184;2023-04-07T12:29:09;10.20;99.90
46608;DHT22;32330;51.936;7.184;2023-04-07T12:31:36;10.20;99.90
46608;DHT22;32330;51.936;7.184;2023-04-07T12:34:04;10.20;99.90
46608;DHT22;32330;51.936;7.184;2023-04-07T12:36:32;10.10;99.90
46608;DHT22;32330;51.936;7.184;2023-04-07T12:38:59;10.10;99.90
46608;DHT22;32330;51.936;7.184;2023-04-07T12:41:26;10.00;99.90
46608;DHT22;32330;51.936;7.184;2023-04-07T12:43:53;9.90;99.90
46608;DHT22;32330;51.936;7.184;2023-04-07T12:46:20;9.90;99.90
46608;DHT22;32330;51.936;7.184;2023-04-07T12:48:47;10.00;99.90
46608;DHT22;32330;51.936;7.184;2023-04-07T12:51:15;10.10;99.90
46608;DHT22;32330;51.936;7.184;2023-04-07T12:53:42;10.10;99.90
46608;DHT22;32330;51.936;7.184;2023-04-07T12:56:09;10.10;99.90
46608;DHT22;32330;51.936;7.184;2023-04-07T12:58:37;10.20;99.90
46608;DHT22;32330;51.936;7.184;2023-04-07T13:01:05;10.20;99.90
46608;DHT22;32330;51.936;7.184;2023-04-07T13:03:32;10.20;99.90
46608;DHT22;32330;51.936;7.184;2023-04-07T13:05:59;10.30;99.90
46608;DHT22;32330;51.936;7.184;2023-04-07T13:08:28;10.20;99.90
46608;DHT22;32330;51.936;7.184;2023-04-07T13:10:55;10.20;99.90
46608;DHT22;32330;51.936;7.184;2023-04-07T13:13:23;10.30;99.90
46608;DHT22;32330;51.936;7.184;2023-04-07T13:15:50;10.30;99.90
46608;DHT22;32330;51.936;7.184;2023-04-07T13:18:17;10.30;99.90
46608;DHT22;32330;51.936;7.184;2023-04-07T13:20:45;10.20;99.90
46608;DHT22;32330;51.936;7.184;2023-04-07T13:23:12;10.10;99.90
46608;DHT22;32330;51.936;7.184;2023-04-07T13:25:42;10.20;99.90
46608;DHT22;32330;51.936;7.184;2023-04-07T13:28:11;10.30;99.90
46608;DHT22;32330;51.936;7.184;2023-04-07T13:30:38;10.30;99.90
46608;DHT22;32330;51.936;7.184;2023-04-07T13:33:09;10.40;99.90
46608;DHT22;32330;51.936;7.184;2023-04-07T13:35:36;10.40;99.90
46608;DHT22;32330;51.936;7.184;2023-04-07T13:38:03;10.40;99.90
46608;DHT22;32330;51.936;7.184;2023-04-07T13:40:30;10.40;99.90
46608;DHT22;32330;51.936;7.184;2023-04-07T13:42:58;10.50;99.90
46608;DHT22;32330;51.936;7.184;2023-04-07T13:45:26;10.60;99.90
46608;DHT22;32330;51.936;7.184;2023-04-07T13:47:53;10.60;99.90
46608;DHT22;32330;51.936;7.184;2023-04-07T13:50:20;10.60;99.90
46608;DHT22;32330;51.936;7.184;2023-04-07T13:52:47;10.70;99.90
46608;DHT22;32330;51.936;7.184;2023-04-07T13:55:14;10.70;99.90
46608;DHT22;32330;51.936;7.184;2023-04-07T13:57:41;10.70;99.90
46608;DHT22;32330;51.936;7.184;2023-04-07T14:00:11;10.60;99.90
46608;DHT22;32330;51.936;7.184;2023-04-07T14:02:39;10.60;99.90
46608;DHT22;32330;51.936;7.184;2023-04-07T14:05:06;10.60;99.90
46608;DHT22;32330;51.936;7.184;2023-04-07T14:07:35;10.70;99.90
46608;DHT22;32330;51.936;7.184;2023-04-07T14:10:03;10.70;99.90
46608;DHT22;32330;51.936;7.184;2023-04-07T14:12:30;10.70;99.90
46608;DHT22;32330;51.936;7.184;2023-04-07T14:14:57;10.70;99.90
46608;DHT22;32330;51.936;7.184;2023-04-07T14:17:25;10.60;99.90
46608;DHT22;32330;51.936;7.184;2023-04-07T14:19:52;10.70;99.90
46608;DHT22;32330;51.936;7.184;2023-04-07T14:22:19;10.70;99.90
46608;DHT22;32330;51.936;7.184;2023-04-07T14:24:46;10.70;99.90
46608;DHT22;32330;51.936;7.184;2023-04-07T14:27:13;10.70;99.90
46608;DHT22;32330;51.936;7.184;2023-04-07T14:29:45;10.80;99.90
46608;DHT22;32330;51.936;7.184;2023-04-07T14:32:12;10.90;99.90
46608;DHT22;32330;51.936;7.184;2023-04-07T14:34:40;10.90;99.90
46608;DHT22;32330;51.936;7.184;2023-04-07T14:37:07;11.00;99.90
46608;DHT22;32330;51.936;7.184;2023-04-07T14:39:34;11.00;99.90
46608;DHT22;32330;51.936;7.184;2023-04-07T14:42:01;11.00;99.90
46608;DHT22;32330;51.936;7.184;2023-04-07T14:44:29;11.00;99.90
46608;DHT22;32330;51.936;7.184;2023-04-07T14:46:56;11.00;99.90
46608;DHT22;32330;51.936;7.184;2023-04-07T14:49:23;11.10;99.90
46608;DHT22;32330;51.936;7.184;2023-04-07T14:51:54;11.10;99.90
46608;DHT22;32330;51.936;7.184;2023-04-07T14:54:21;11.10;99.90
46608;DHT22;32330;51.936;7.184;2023-04-07T14:56:49;11.10;99.90
46608;DHT22;32330;51.936;7.184;2023-04-07T14:59:16;11.10;99.90
46608;DHT22;32330;51.936;7.184;2023-04-07T15:01:43;11.20;99.90
46608;DHT22;32330;51.936;7.184;2023-04-07T15:04:10;11.10;99.90
46608;DHT22;32330;51.936;7.184;2023-04-07T15:06:39;11.20;99.90
46608;DHT22;32330;51.936;7.184;2023-04-07T15:09:08;11.30;99.90
46608;DHT22;32330;51.936;7.184;2023-04-07T15:11:35;11.20;99.90
46608;DHT22;32330;51.936;7.184;2023-04-07T15:14:02;11.20;99.90
46608;DHT22;32330;51.936;7.184;2023-04-07T15:16:31;11.30;99.90
46608;DHT22;32330;51.936;7.184;2023-04-07T15:18:58;11.40;99.90
46608;DHT22;32330;51.936;7.184;2023-04-07T15:21:26;11.40;99.90
46608;DHT22;32330;51.936;7.184;2023-04-07T15:23:53;11.40;99.90
46608;DHT22;32330;51.936;7.184;2023-04-07T15:26:21;11.40;99.90
46608;DHT22;32330;51.936;7.184;2023-04-07T15:28:48;11.40;99.90
46608;DHT22;32330;51.936;7.184;2023-04-07T15:31:15;11.40;99.90
46608;DHT22;32330;51.936;7.184;2023-04-07T15:33:42;11.40;99.90
46608;DHT22;32330;51.936;7.184;2023-04-07T15:36:10;11.40;99.90
46608;DHT22;32330;51.936;7.184;2023-04-07T15:38:37;11.40;99.90
46608;DHT22;32330;51.936;7.184;2023-04-07T15:41:05;11.40;99.90
46608;DHT22;32330;51.936;7.184;2023-04-07T15:43:34;11.40;99.90
46608;DHT22;32330;51.936;7.184;2023-04-07T15:46:01;11.40;99.90
46608;DHT22;32330;51.936;7.184;2023-04-07T15:48:28;11.30;99.90
46608;DHT22;32330;51.936;7.184;2023-04-07T15:50:55;11.30;99.90
46608;DHT22;32330;51.936;7.184;2023-04-07T15:53:22;11.40;99.90
46608;DHT22;32330;51.936;7.184;2023-04-07T15:55:49;11.40;99.90
46608;DHT22;32330;51.936;7.184;2023-04-07T15:58:16;11.40;99.90
46608;DHT22;32330;51.936;7.184;2023-04-07T16:00:44;11.40;99.90
46608;DHT22;32330;51.936;7.184;2023-04-07T16:03:11;11.40;99.90
46608;DHT22;32330;51.936;7.184;2023-04-07T16:05:38;11.40;99.90
46608;DHT22;32330;51.936;7.184;2023-04-07T16:08:05;11.40;99.90
46608;DHT22;32330;51.936;7.184;2023-04-07T16:10:32;11.40;99.90
46608;DHT22;32330;51.936;7.184;2023-04-07T16:12:59;11.40;99.90
46608;DHT22;32330;51.936;7.184;2023-04-07T16:15:25;11.40;99.90
46608;DHT22;32330;51.936;7.184;2023-04-07T16:17:54;11.40;99.90
46608;DHT22;32330;51.936;7.184;2023-04-07T16:20:21;11.40;99.90
46608;DHT22;32330;51.936;7.184;2023-04-07T16:22:48;11.30;99.90
46608;DHT22;32330;51.936;7.184;2023-04-07T16:25:15;11.30;99.90
46608;DHT22;32330;51.936;7.184;2023-04-07T16:27:43;11.30;91.30
46608;DHT22;32330;51.936;7.184;2023-04-07T16:30:13;11.40;92.90
46608;DHT22;32330;51.936;7.184;2023-04-07T16:32:40;11.40;93.70
46608;DHT22;32330;51.936;7.184;2023-04-07T16:35:09;11.40;88.80
46608;DHT22;32330;51.936;7.184;2023-04-07T16:37:37;11.30;91.70
46608;DHT22;32330;51.936;7.184;2023-04-07T16:40:05;11.30;84.50
46608;DHT22;32330;51.936;7.184;2023-04-07T16:42:32;11.20;90.40
46608;DHT22;32330;51.936;7.184;2023-04-07T16:44:59;11.20;85.00
46608;DHT22;32330;51.936;7.184;2023-04-07T16:47:27;11.30;86.10
46608;DHT22;32330;51.936;7.184;2023-04-07T16:49:54;11.20;83.70
46608;DHT22;32330;51.936;7.184;2023-04-07T16:52:23;11.20;87.10
46608;DHT22;32330;51.936;7.184;2023-04-07T16:54:51;11.20;91.00
46608;DHT22;32330;51.936;7.184;2023-04-07T16:57:18;11.20;90.00
46608;DHT22;32330;51.936;7.184;2023-04-07T16:59:45;11.20;87.10
46608;DHT22;32330;51.936;7.184;2023-04-07T17:02:13;11.20;85.30
46608;DHT22;32330;51.936;7.184;2023-04-07T17:04:42;11.20;90.00
46608;DHT22;32330;51.936;7.184;2023-04-07T17:07:09;11.10;88.70
46608;DHT22;32330;51.936;7.184;2023-04-07T17:09:38;11.10;88.20
46608;DHT22;32330;51.936;7.184;2023-04-07T17:12:05;11.10;91.40
46608;DHT22;32330;51.936;7.184;2023-04-07T17:14:32;11.10;88.20
46608;DHT22;32330;51.936;7.184;2023-04-07T17:17:00;11.10;90.70
46608;DHT22;32330;51.936;7.184;2023-04-07T17:19:27;11.10;90.90
46608;DHT22;32330;51.936;7.184;2023-04-07T17:21:54;11.10;92.70
46608;DHT22;32330;51.936;7.184;2023-04-07T17:24:21;11.10;93.20
46608;DHT22;32330;51.936;7.184;2023-04-07T17:26:49;11.00;92.30
46608;DHT22;32330;51.936;7.184;2023-04-07T17:29:16;11.00;89.60
46608;DHT22;32330;51.936;7.184;2023-04-07T17:31:46;11.00;83.20
46608;DHT22;32330;51.936;7.184;2023-04-07T17:34:14;11.00;84.30
46608;DHT22;32330;51.936;7.184;2023-04-07T17:36:41;11.00;91.50
46608;DHT22;32330;51.936;7.184;2023-04-07T17:39:08;11.00;92.20
46608;DHT22;32330;51.936;7.184;2023-04-07T17:41:35;11.00;92.60
46608;DHT22;32330;51.936;7.184;2023-04-07T17:44:04;11.00;93.70
46608;DHT22;32330;51.936;7.184;2023-04-07T17:46:31;10.90;95.20
46608;DHT22;32330;51.936;7.184;2023-04-07T17:48:58;10.80;94.70
46608;DHT22;32330;51.936;7.184;2023-04-07T17:51:26;10.80;96.80
46608;DHT22;32330;51.936;7.184;2023-04-07T17:53:54;10.80;95.90
46608;DHT22;32330;51.936;7.184;2023-04-07T17:56:21;10.60;97.40
46608;DHT22;32330;51.936;7.184;2023-04-07T17:58:49;10.60;97.50
46608;DHT22;32330;51.936;7.184;2023-04-07T18:01:17;10.70;99.50
46608;DHT22;32330;51.936;7.184;2023-04-07T18:03:44;10.60;99.90
46608;DHT22;32330;51.936;7.184;2023-04-07T18:06:14;10.60;99.90
46608;DHT22;32330;51.936;7.184;2023-04-07T18:08:44;10.60;99.90
46608;DHT22;32330;51.936;7.184;2023-04-07T18:11:11;10.50;99.90
46608;DHT22;32330;51.936;7.184;2023-04-07T18:13:38;10.50;99.90
46608;DHT22;32330;51.936;7.184;2023-04-07T18:16:05;10.50;99.90
46608;DHT22;32330;51.936;7.184;2023-04-07T18:18:35;10.50;99.90
46608;DHT22;32330;51.936;7.184;2023-04-07T18:21:04;10.40;99.90
46608;DHT22;32330;51.936;7.184;2023-04-07T18:23:31;10.40;99.90
46608;DHT22;32330;51.936;7.184;2023-04-07T18:26:01;10.30;99.90
46608;DHT22;32330;51.936;7.184;2023-04-07T18:28:29;10.30;99.90
46608;DHT22;32330;51.936;7.184;2023-04-07T18:31:00;10.20;99.90
46608;DHT22;32330;51.936;7.184;2023-04-07T18:33:28;10.20;99.90
46608;DHT22;32330;51.936;7.184;2023-04-07T18:36:01;10.10;99.90
46608;DHT22;32330;51.936;7.184;2023-04-07T18:38:31;10.10;99.90
46608;DHT22;32330;51.936;7.184;2023-04-07T18:40:58;10.00;99.90
46608;DHT22;32330;51.936;7.184;2023-04-07T18:43:25;10.00;99.90
46608;DHT22;32330;51.936;7.184;2023-04-07T18:45:52;10.00;99.90
46608;DHT22;32330;51.936;7.184;2023-04-07T18:48:19;9.90;99.90
46608;DHT22;32330;51.936;7.184;2023-04-07T18:50:50;9.80;99.90
46608;DHT22;32330;51.936;7.184;2023-04-07T18:53:19;9.80;99.90
46608;DHT22;32330;51.936;7.184;2023-04-07T18:55:47;9.70;99.90
46608;DHT22;32330;51.936;7.184;2023-04-07T18:58:14;9.70;99.90
46608;DHT22;32330;51.936;7.184;2023-04-07T19:00:41;9.60;99.90
46608;DHT22;32330;51.936;7.184;2023-04-07T19:03:08;9.50;99.90
46608;DHT22;32330;51.936;7.184;2023-04-07T19:05:36;9.40;99.90
46608;DHT22;32330;51.936;7.184;2023-04-07T19:08:04;9.40;99.90
